Hurt, Virginia
Current Conditions -  °F | °C
As of 5:35 PM on Monday 22 Dec 2014 (Local Time) from K0V4 Reporting Station
Overcast Overcast  
Wind Chill: 31°   Ceiling: 500
Heat Index: 36°   Visibility: 3mi
Dew Point: 36°   Wind: 6mph
Humidity: 100%   Direction: 20°NNE
Pressure: 30.1"   Gusts: NA
Location:  37.09°N, 79.3°W
Report Text: K0V4 222235Z AUTO 02005KT 3SM OVC005 02/02 A3010 RMK AO1 T00220022
Loading
Personal Weather Stations






























Interactive Weather Map New forecast layout! Learn more

10-Day Weather Forecast

Advertisements
Track Severe Weather on mobile